Gainesville, FL

12:20 PM EDT on June 27, 2017 (GMT -0400)
NW. 34th St. | | Change Station

Elev 121 ft 29.68 °N, 82.39 °W | Updated 6 seconds ago

Mostly Cloudy
Mostly Cloudy
86.7 °F
Feels Like 90 °F
N
3.6
Wind Variable Wind from NW
Gusts 4.9 mph

Today
High -- | Low -- °F
--% Chance of Precip.
Yesterday
High -- | Low -- °F
Precip. -- in
Pressure 30.01 in
Visibility 10.0 miles
Clouds Scattered Clouds 2500 ft
Mostly Cloudy 3300 ft
Heat Index 90 °F
Dew Point 68 °F
Humidity 53%
Rainfall 0.00 in
Snow Depth Not available.
6:31 AM 8:33 PM
Waxing Crescent, 17% visible
METAR KGNV 271553Z 30007KT 10SM SCT025 BKN033 29/23 A3001 RMK AO2 LTG DSNT S AND SW SLP160 T02940233
Pressure 30.01 in
Visibility 10.0 miles
Clouds Scattered Clouds 2500 ft
Mostly Cloudy 3300 ft
Heat Index 90 °F
Dew Point 68 °F
Humidity 53%
Rainfall 0.00 in
Snow Depth Not available.
6:31 AM 8:33 PM
Waxing Crescent, 17% visible
METAR KGNV 271553Z 30007KT 10SM SCT025 BKN033 29/23 A3001 RMK AO2 LTG DSNT S AND SW SLP160 T02940233

Get Severe Weather Alerts

Thanks for signing up!

Be on the lookout for a verification email in your inbox.

You'll start receiving the daily forecast at 6 AM.

×

10-Day Weather Forecast

Almanac

Astronomy

Jun. 27, 2017 Rise Set
Actual Time
Civil Twilight
Nautical Twilight
Astronomical Twilight
Moon
Length of Visible Light
Length of Day
Tomorrow will be .
, % of the Moon is Illuminated

Today's Extremes

State Highs State Lows

Community

WunderPhotos

Category 6

Welcome to Category 6. This is the collective home for Weather Underground's featured writeups by Dr. Jeff Masters (right), Bob Henson (left), Chris Burt, and other regular contributors.

Nearby

Air Quality

  Air Quality AQ Index Pollutant
Not available.

Snow Depth

Station Depth Elevation

Earthquake Activity

City Distance Mag. Time & Date
Minimum magnitude displayed is 2.5.

Coastal Water Temperatures

Place Temperature

Stations

Nearby Weather Stations

Station Location Temp. Windchill Dew Point Humidity Wind Precip. Elev Updated Type
                   

Watches & Warnings

There are currently no watches in effect.